KSUT

Cape Fear Regional Jetport / Howie Franklin Field Airport

Oak Island, North Carolina, USA
METAR KSUT 211440Z AUTO 22005KT 10SM SCT009 SCT012 25/22 A3020 RMK AO2 T02470220
Observed Flight Rules
May-21 @ 14:40 UTC (21 minutes ago) Visual Flight Rules
Wind Visibility Clouds
220° at 5 knots 10 miles
  • Scattered at 900' AGL
  • Scattered at 1,200' AGL
Temperatures Readings
Current 25°C / 77°F
Dewpoint 22°C / 72°F
Humidity 83%
Altimeter 30.2" Hg
Pressure 1023 hPa
Elevation 8
METAR KSUT 211440Z AUTO 22005KT 10SM SCT009 SCT012 25/22 A3020 RMK AO2 T02470220
Observed Flight Rules
May-21 @ 14:40 UTC
(21 minutes ago)
VFR
Wind Visibility
220° at 5 knots 10 miles
Clouds
  • Scattered at 900' AGL
  • Scattered at 1,200' AGL
Temperature Dewpoint
25°C / 77°F 22°C / 72°F
Humidity Altimeter Pressure
83% 30.2" Hg 1023 hPa